sensor_id;sensor_type;location;lat;lon;timestamp;temperature;humidity
69331;DHT22;56475;52.114;5.480;2022-07-31T00:00:20;19.20;65.00
69331;DHT22;56475;52.114;5.480;2022-07-31T00:02:47;19.20;65.50
69331;DHT22;56475;52.114;5.480;2022-07-31T00:05:14;19.20;65.40
69331;DHT22;56475;52.114;5.480;2022-07-31T00:07:41;19.10;65.70
69331;DHT22;56475;52.114;5.480;2022-07-31T00:10:08;19.00;65.50
69331;DHT22;56475;52.114;5.480;2022-07-31T00:12:35;19.00;66.20
69331;DHT22;56475;52.114;5.480;2022-07-31T00:15:04;19.00;66.30
69331;DHT22;56475;52.114;5.480;2022-07-31T00:17:33;19.00;67.10
69331;DHT22;56475;52.114;5.480;2022-07-31T00:20:00;18.90;67.00
69331;DHT22;56475;52.114;5.480;2022-07-31T00:22:28;18.90;66.80
69331;DHT22;56475;52.114;5.480;2022-07-31T00:24:55;18.80;66.80
69331;DHT22;56475;52.114;5.480;2022-07-31T00:27:23;18.80;67.30
69331;DHT22;56475;52.114;5.480;2022-07-31T00:29:51;18.80;67.60
69331;DHT22;56475;52.114;5.480;2022-07-31T00:32:18;18.80;67.40
69331;DHT22;56475;52.114;5.480;2022-07-31T00:34:45;18.70;67.70
69331;DHT22;56475;52.114;5.480;2022-07-31T00:37:12;18.70;67.80
69331;DHT22;56475;52.114;5.480;2022-07-31T00:39:39;18.80;68.10
69331;DHT22;56475;52.114;5.480;2022-07-31T00:42:16;18.70;67.90
69331;DHT22;56475;52.114;5.480;2022-07-31T00:44:44;18.70;69.40
69331;DHT22;56475;52.114;5.480;2022-07-31T00:47:14;18.60;68.30
69331;DHT22;56475;52.114;5.480;2022-07-31T00:49:42;18.70;68.60
69331;DHT22;56475;52.114;5.480;2022-07-31T00:52:09;18.60;68.70
69331;DHT22;56475;52.114;5.480;2022-07-31T00:54:37;18.60;69.00
69331;DHT22;56475;52.114;5.480;2022-07-31T00:57:04;18.60;68.80
69331;DHT22;56475;52.114;5.480;2022-07-31T00:59:32;18.60;69.20
69331;DHT22;56475;52.114;5.480;2022-07-31T01:01:59;18.50;69.20
69331;DHT22;56475;52.114;5.480;2022-07-31T01:04:26;18.50;69.20
69331;DHT22;56475;52.114;5.480;2022-07-31T01:06:57;18.60;69.30
69331;DHT22;56475;52.114;5.480;2022-07-31T01:09:26;18.50;69.60
69331;DHT22;56475;52.114;5.480;2022-07-31T01:12:11;18.50;69.90
69331;DHT22;56475;52.114;5.480;2022-07-31T01:14:47;18.50;70.60
69331;DHT22;56475;52.114;5.480;2022-07-31T01:17:17;18.50;70.80
69331;DHT22;56475;52.114;5.480;2022-07-31T01:19:48;18.50;70.60
69331;DHT22;56475;52.114;5.480;2022-07-31T01:26:02;18.60;71.00
69331;DHT22;56475;52.114;5.480;2022-07-31T01:29:12;18.40;71.10
69331;DHT22;56475;52.114;5.480;2022-07-31T01:31:45;18.40;71.60
69331;DHT22;56475;52.114;5.480;2022-07-31T01:34:21;18.40;72.00
69331;DHT22;56475;52.114;5.480;2022-07-31T01:37:00;18.40;72.10
69331;DHT22;56475;52.114;5.480;2022-07-31T01:39:32;18.50;72.30
69331;DHT22;56475;52.114;5.480;2022-07-31T01:42:03;18.40;72.20
69331;DHT22;56475;52.114;5.480;2022-07-31T01:44:37;18.40;72.10
69331;DHT22;56475;52.114;5.480;2022-07-31T01:47:06;18.40;72.30
69331;DHT22;56475;52.114;5.480;2022-07-31T01:49:35;18.40;71.50
69331;DHT22;56475;52.114;5.480;2022-07-31T01:52:04;18.30;71.60
69331;DHT22;56475;52.114;5.480;2022-07-31T01:54:34;18.30;71.30
69331;DHT22;56475;52.114;5.480;2022-07-31T01:57:03;18.30;71.70
69331;DHT22;56475;52.114;5.480;2022-07-31T01:59:37;18.30;71.80
69331;DHT22;56475;52.114;5.480;2022-07-31T02:02:14;18.30;71.80
69331;DHT22;56475;52.114;5.480;2022-07-31T02:04:42;18.20;72.00
69331;DHT22;56475;52.114;5.480;2022-07-31T02:07:13;18.20;71.90
69331;DHT22;56475;52.114;5.480;2022-07-31T02:09:42;18.20;72.20
69331;DHT22;56475;52.114;5.480;2022-07-31T02:12:29;18.20;72.40
69331;DHT22;56475;52.114;5.480;2022-07-31T02:15:06;17.70;72.10
69331;DHT22;56475;52.114;5.480;2022-07-31T02:17:35;18.10;73.50
69331;DHT22;56475;52.114;5.480;2022-07-31T02:20:22;18.10;73.10
69331;DHT22;56475;52.114;5.480;2022-07-31T02:22:53;18.10;73.20
69331;DHT22;56475;52.114;5.480;2022-07-31T02:25:20;18.00;72.90
69331;DHT22;56475;52.114;5.480;2022-07-31T02:27:48;18.10;72.80
69331;DHT22;56475;52.114;5.480;2022-07-31T02:30:27;18.00;72.70
69331;DHT22;56475;52.114;5.480;2022-07-31T02:33:11;18.00;73.50
69331;DHT22;56475;52.114;5.480;2022-07-31T02:35:42;18.10;73.70
69331;DHT22;56475;52.114;5.480;2022-07-31T02:38:16;18.10;73.70
69331;DHT22;56475;52.114;5.480;2022-07-31T02:40:53;18.10;74.00
69331;DHT22;56475;52.114;5.480;2022-07-31T02:43:21;18.10;74.00
69331;DHT22;56475;52.114;5.480;2022-07-31T02:45:48;18.00;73.70
69331;DHT22;56475;52.114;5.480;2022-07-31T02:48:16;18.10;73.50
69331;DHT22;56475;52.114;5.480;2022-07-31T02:50:46;18.00;73.80
69331;DHT22;56475;52.114;5.480;2022-07-31T02:53:14;18.10;74.40
69331;DHT22;56475;52.114;5.480;2022-07-31T02:55:43;18.10;73.50
69331;DHT22;56475;52.114;5.480;2022-07-31T02:58:13;18.00;74.10
69331;DHT22;56475;52.114;5.480;2022-07-31T03:00:43;18.00;73.40
69331;DHT22;56475;52.114;5.480;2022-07-31T03:03:12;18.00;73.70
69331;DHT22;56475;52.114;5.480;2022-07-31T03:05:40;18.00;74.00
69331;DHT22;56475;52.114;5.480;2022-07-31T03:08:07;17.90;73.90
69331;DHT22;56475;52.114;5.480;2022-07-31T03:10:37;18.00;74.30
69331;DHT22;56475;52.114;5.480;2022-07-31T03:13:05;17.90;74.40
69331;DHT22;56475;52.114;5.480;2022-07-31T03:15:34;18.00;75.20
69331;DHT22;56475;52.114;5.480;2022-07-31T03:18:02;18.00;75.40
69331;DHT22;56475;52.114;5.480;2022-07-31T03:20:39;17.90;74.90
69331;DHT22;56475;52.114;5.480;2022-07-31T03:23:10;18.00;74.60
69331;DHT22;56475;52.114;5.480;2022-07-31T03:25:48;18.00;75.20
69331;DHT22;56475;52.114;5.480;2022-07-31T03:28:18;17.90;75.40
69331;DHT22;56475;52.114;5.480;2022-07-31T03:30:49;18.00;75.50
69331;DHT22;56475;52.114;5.480;2022-07-31T03:33:20;18.00;75.60
69331;DHT22;56475;52.114;5.480;2022-07-31T03:35:48;18.00;75.00
69331;DHT22;56475;52.114;5.480;2022-07-31T03:38:15;18.00;75.60
69331;DHT22;56475;52.114;5.480;2022-07-31T03:41:04;18.00;75.10
69331;DHT22;56475;52.114;5.480;2022-07-31T03:43:31;18.00;75.20
69331;DHT22;56475;52.114;5.480;2022-07-31T03:46:18;18.00;74.90
69331;DHT22;56475;52.114;5.480;2022-07-31T03:48:46;18.00;75.90
69331;DHT22;56475;52.114;5.480;2022-07-31T03:51:14;18.00;74.90
69331;DHT22;56475;52.114;5.480;2022-07-31T03:53:42;17.90;75.20
69331;DHT22;56475;52.114;5.480;2022-07-31T03:56:23;18.00;75.10
69331;DHT22;56475;52.114;5.480;2022-07-31T03:58:51;18.10;75.40
69331;DHT22;56475;52.114;5.480;2022-07-31T04:01:20;18.00;74.90
69331;DHT22;56475;52.114;5.480;2022-07-31T04:03:57;18.00;75.30
69331;DHT22;56475;52.114;5.480;2022-07-31T04:06:30;18.00;76.00
69331;DHT22;56475;52.114;5.480;2022-07-31T04:08:57;18.00;74.70
69331;DHT22;56475;52.114;5.480;2022-07-31T04:11:24;18.10;74.70
69331;DHT22;56475;52.114;5.480;2022-07-31T04:13:51;18.10;74.70
69331;DHT22;56475;52.114;5.480;2022-07-31T04:16:18;18.10;74.70
69331;DHT22;56475;52.114;5.480;2022-07-31T04:18:46;18.10;74.70
69331;DHT22;56475;52.114;5.480;2022-07-31T04:21:17;18.10;74.40
69331;DHT22;56475;52.114;5.480;2022-07-31T04:23:44;18.10;75.00
69331;DHT22;56475;52.114;5.480;2022-07-31T04:26:45;18.20;74.90
69331;DHT22;56475;52.114;5.480;2022-07-31T04:29:14;18.20;74.60
69331;DHT22;56475;52.114;5.480;2022-07-31T04:31:42;18.30;74.50
69331;DHT22;56475;52.114;5.480;2022-07-31T04:34:13;18.20;74.80
69331;DHT22;56475;52.114;5.480;2022-07-31T04:36:40;18.40;75.00
69331;DHT22;56475;52.114;5.480;2022-07-31T04:39:07;18.30;75.00
69331;DHT22;56475;52.114;5.480;2022-07-31T04:41:34;18.50;74.90
69331;DHT22;56475;52.114;5.480;2022-07-31T04:44:01;18.50;75.10
69331;DHT22;56475;52.114;5.480;2022-07-31T04:46:40;18.50;75.20
69331;DHT22;56475;52.114;5.480;2022-07-31T04:49:09;18.50;74.90
69331;DHT22;56475;52.114;5.480;2022-07-31T04:51:41;18.60;74.70
69331;DHT22;56475;52.114;5.480;2022-07-31T04:54:09;18.70;75.40
69331;DHT22;56475;52.114;5.480;2022-07-31T04:56:36;18.70;75.30
69331;DHT22;56475;52.114;5.480;2022-07-31T04:59:10;18.70;74.80
69331;DHT22;56475;52.114;5.480;2022-07-31T05:01:41;18.80;75.50
69331;DHT22;56475;52.114;5.480;2022-07-31T05:04:09;18.50;74.90
69331;DHT22;56475;52.114;5.480;2022-07-31T05:06:48;18.90;75.90
69331;DHT22;56475;52.114;5.480;2022-07-31T05:09:18;18.70;75.90
69331;DHT22;56475;52.114;5.480;2022-07-31T05:11:53;19.00;75.30
69331;DHT22;56475;52.114;5.480;2022-07-31T05:14:23;19.00;74.50
69331;DHT22;56475;52.114;5.480;2022-07-31T05:16:53;19.10;74.50
69331;DHT22;56475;52.114;5.480;2022-07-31T05:19:20;19.20;74.50
69331;DHT22;56475;52.114;5.480;2022-07-31T05:22:19;19.20;74.40
69331;DHT22;56475;52.114;5.480;2022-07-31T05:25:21;19.30;74.10
69331;DHT22;56475;52.114;5.480;2022-07-31T05:27:48;19.40;74.00
69331;DHT22;56475;52.114;5.480;2022-07-31T05:30:17;19.30;74.00
69331;DHT22;56475;52.114;5.480;2022-07-31T05:32:56;19.40;73.90
69331;DHT22;56475;52.114;5.480;2022-07-31T05:35:24;19.40;73.70
69331;DHT22;56475;52.114;5.480;2022-07-31T05:37:51;19.50;73.70
69331;DHT22;56475;52.114;5.480;2022-07-31T05:40:28;19.50;73.80
69331;DHT22;56475;52.114;5.480;2022-07-31T05:43:34;19.40;73.80
69331;DHT22;56475;52.114;5.480;2022-07-31T05:46:12;19.50;73.80
69331;DHT22;56475;52.114;5.480;2022-07-31T05:48:43;19.50;73.80
69331;DHT22;56475;52.114;5.480;2022-07-31T05:51:12;19.50;74.20
69331;DHT22;56475;52.114;5.480;2022-07-31T05:53:40;19.40;74.00
69331;DHT22;56475;52.114;5.480;2022-07-31T05:56:30;19.50;74.20
69331;DHT22;56475;52.114;5.480;2022-07-31T05:58:58;19.60;73.60
69331;DHT22;56475;52.114;5.480;2022-07-31T06:01:25;19.40;73.90
69331;DHT22;56475;52.114;5.480;2022-07-31T06:03:52;19.50;73.80
69331;DHT22;56475;52.114;5.480;2022-07-31T06:06:23;19.60;73.90
69331;DHT22;56475;52.114;5.480;2022-07-31T06:08:50;19.60;73.80
69331;DHT22;56475;52.114;5.480;2022-07-31T06:11:19;19.60;73.70
69331;DHT22;56475;52.114;5.480;2022-07-31T06:13:46;19.70;73.90
69331;DHT22;56475;52.114;5.480;2022-07-31T06:16:25;19.70;73.70
69331;DHT22;56475;52.114;5.480;2022-07-31T06:18:52;19.80;73.60
69331;DHT22;56475;52.114;5.480;2022-07-31T06:21:20;19.80;73.80
69331;DHT22;56475;52.114;5.480;2022-07-31T06:23:47;19.80;73.40
69331;DHT22;56475;52.114;5.480;2022-07-31T06:26:34;19.90;73.60
69331;DHT22;56475;52.114;5.480;2022-07-31T06:29:02;19.90;73.60
69331;DHT22;56475;52.114;5.480;2022-07-31T06:31:29;19.90;73.30
69331;DHT22;56475;52.114;5.480;2022-07-31T06:33:57;20.00;74.50
69331;DHT22;56475;52.114;5.480;2022-07-31T06:36:32;20.00;73.70
69331;DHT22;56475;52.114;5.480;2022-07-31T06:39:01;20.00;73.30
69331;DHT22;56475;52.114;5.480;2022-07-31T06:41:34;20.20;73.40
69331;DHT22;56475;52.114;5.480;2022-07-31T06:44:30;20.20;73.00
69331;DHT22;56475;52.114;5.480;2022-07-31T06:47:21;20.20;73.30
69331;DHT22;56475;52.114;5.480;2022-07-31T06:49:55;20.30;73.80
69331;DHT22;56475;52.114;5.480;2022-07-31T06:52:26;20.30;73.20
69331;DHT22;56475;52.114;5.480;2022-07-31T06:54:53;20.30;73.10
69331;DHT22;56475;52.114;5.480;2022-07-31T06:57:20;20.30;73.20
69331;DHT22;56475;52.114;5.480;2022-07-31T06:59:48;20.30;73.30
69331;DHT22;56475;52.114;5.480;2022-07-31T07:02:15;20.30;73.30
69331;DHT22;56475;52.114;5.480;2022-07-31T07:04:42;20.40;73.40
69331;DHT22;56475;52.114;5.480;2022-07-31T07:07:30;20.40;73.20
69331;DHT22;56475;52.114;5.480;2022-07-31T07:09:59;20.40;73.00
69331;DHT22;56475;52.114;5.480;2022-07-31T07:12:49;20.40;73.40
69331;DHT22;56475;52.114;5.480;2022-07-31T07:15:19;20.50;73.10
69331;DHT22;56475;52.114;5.480;2022-07-31T07:17:47;20.50;73.10
69331;DHT22;56475;52.114;5.480;2022-07-31T07:20:19;20.60;73.10
69331;DHT22;56475;52.114;5.480;2022-07-31T07:22:46;20.60;73.00
69331;DHT22;56475;52.114;5.480;2022-07-31T07:25:26;20.60;73.20
69331;DHT22;56475;52.114;5.480;2022-07-31T07:27:56;20.60;73.10
69331;DHT22;56475;52.114;5.480;2022-07-31T07:30:23;20.60;73.10
69331;DHT22;56475;52.114;5.480;2022-07-31T07:32:57;20.50;73.30
69331;DHT22;56475;52.114;5.480;2022-07-31T07:35:26;20.60;73.20
69331;DHT22;56475;52.114;5.480;2022-07-31T07:38:02;20.60;73.30
69331;DHT22;56475;52.114;5.480;2022-07-31T07:40:29;20.70;73.40
69331;DHT22;56475;52.114;5.480;2022-07-31T07:42:56;20.80;73.20
69331;DHT22;56475;52.114;5.480;2022-07-31T07:45:29;20.90;73.50
69331;DHT22;56475;52.114;5.480;2022-07-31T07:47:57;21.00;73.20
69331;DHT22;56475;52.114;5.480;2022-07-31T07:50:46;21.10;73.20
69331;DHT22;56475;52.114;5.480;2022-07-31T07:53:45;21.20;73.20
69331;DHT22;56475;52.114;5.480;2022-07-31T07:56:47;21.40;73.10
69331;DHT22;56475;52.114;5.480;2022-07-31T07:59:32;21.50;72.80
69331;DHT22;56475;52.114;5.480;2022-07-31T08:02:18;21.60;72.40
69331;DHT22;56475;52.114;5.480;2022-07-31T08:04:46;21.80;72.10
69331;DHT22;56475;52.114;5.480;2022-07-31T08:07:14;22.00;71.90
69331;DHT22;56475;52.114;5.480;2022-07-31T08:09:41;22.10;71.50
69331;DHT22;56475;52.114;5.480;2022-07-31T08:12:11;22.20;71.20
69331;DHT22;56475;52.114;5.480;2022-07-31T08:14:56;22.30;70.60
69331;DHT22;56475;52.114;5.480;2022-07-31T08:17:58;22.30;70.20
69331;DHT22;56475;52.114;5.480;2022-07-31T08:20:26;22.30;69.90
69331;DHT22;56475;52.114;5.480;2022-07-31T08:22:53;22.20;69.80
69331;DHT22;56475;52.114;5.480;2022-07-31T08:25:20;22.10;69.80
69331;DHT22;56475;52.114;5.480;2022-07-31T08:27:48;22.20;70.10
69331;DHT22;56475;52.114;5.480;2022-07-31T08:30:15;22.20;70.20
69331;DHT22;56475;52.114;5.480;2022-07-31T08:32:42;22.20;70.10
69331;DHT22;56475;52.114;5.480;2022-07-31T08:35:20;22.20;70.00
69331;DHT22;56475;52.114;5.480;2022-07-31T08:37:47;22.10;70.00
69331;DHT22;56475;52.114;5.480;2022-07-31T08:40:29;22.10;70.20
69331;DHT22;56475;52.114;5.480;2022-07-31T08:42:58;21.90;70.70
69331;DHT22;56475;52.114;5.480;2022-07-31T08:45:27;21.90;72.00
69331;DHT22;56475;52.114;5.480;2022-07-31T08:48:07;21.80;71.30
69331;DHT22;56475;52.114;5.480;2022-07-31T08:50:43;21.60;72.10
69331;DHT22;56475;52.114;5.480;2022-07-31T08:53:29;21.50;72.70
69331;DHT22;56475;52.114;5.480;2022-07-31T08:56:04;21.40;73.40
69331;DHT22;56475;52.114;5.480;2022-07-31T08:58:31;21.40;74.10
69331;DHT22;56475;52.114;5.480;2022-07-31T09:01:07;21.30;74.40
69331;DHT22;56475;52.114;5.480;2022-07-31T09:03:36;21.40;74.70
69331;DHT22;56475;52.114;5.480;2022-07-31T09:06:06;21.40;74.80
69331;DHT22;56475;52.114;5.480;2022-07-31T09:08:34;21.50;75.00
69331;DHT22;56475;52.114;5.480;2022-07-31T09:11:11;21.60;75.20
69331;DHT22;56475;52.114;5.480;2022-07-31T09:13:53;21.80;75.30
69331;DHT22;56475;52.114;5.480;2022-07-31T09:16:46;21.90;74.80
69331;DHT22;56475;52.114;5.480;2022-07-31T09:19:21;22.10;74.50
69331;DHT22;56475;52.114;5.480;2022-07-31T09:22:22;22.20;74.80
69331;DHT22;56475;52.114;5.480;2022-07-31T09:24:49;22.30;73.70
69331;DHT22;56475;52.114;5.480;2022-07-31T09:27:17;22.40;73.60
69331;DHT22;56475;52.114;5.480;2022-07-31T09:29:46;22.40;73.40
69331;DHT22;56475;52.114;5.480;2022-07-31T09:32:28;22.40;73.00
69331;DHT22;56475;52.114;5.480;2022-07-31T09:35:09;22.40;73.10
69331;DHT22;56475;52.114;5.480;2022-07-31T09:37:38;22.30;73.50
69331;DHT22;56475;52.114;5.480;2022-07-31T09:40:33;22.30;73.30
69331;DHT22;56475;52.114;5.480;2022-07-31T09:43:41;22.30;73.70
69331;DHT22;56475;52.114;5.480;2022-07-31T09:46:18;22.20;73.50
69331;DHT22;56475;52.114;5.480;2022-07-31T09:48:53;22.20;73.40
69331;DHT22;56475;52.114;5.480;2022-07-31T09:51:39;22.10;74.10
69331;DHT22;56475;52.114;5.480;2022-07-31T09:54:22;22.00;74.60
69331;DHT22;56475;52.114;5.480;2022-07-31T09:57:13;21.90;75.10
69331;DHT22;56475;52.114;5.480;2022-07-31T09:59:43;22.00;75.00
69331;DHT22;56475;52.114;5.480;2022-07-31T10:02:13;22.00;74.90
69331;DHT22;56475;52.114;5.480;2022-07-31T10:04:45;22.10;75.00
69331;DHT22;56475;52.114;5.480;2022-07-31T10:07:16;22.20;74.90
69331;DHT22;56475;52.114;5.480;2022-07-31T10:10:04;22.20;74.80
69331;DHT22;56475;52.114;5.480;2022-07-31T10:12:53;22.20;74.80
69331;DHT22;56475;52.114;5.480;2022-07-31T10:15:22;22.40;74.90
69331;DHT22;56475;52.114;5.480;2022-07-31T10:18:09;22.60;74.90
69331;DHT22;56475;52.114;5.480;2022-07-31T10:20:58;22.90;74.40
69331;DHT22;56475;52.114;5.480;2022-07-31T10:23:51;23.20;73.90
69331;DHT22;56475;52.114;5.480;2022-07-31T10:26:20;23.70;73.60
69331;DHT22;56475;52.114;5.480;2022-07-31T10:29:05;24.20;72.70
69331;DHT22;56475;52.114;5.480;2022-07-31T10:31:32;24.70;71.40
69331;DHT22;56475;52.114;5.480;2022-07-31T10:33:59;25.10;69.90
69331;DHT22;56475;52.114;5.480;2022-07-31T10:37:04;25.10;68.00
69331;DHT22;56475;52.114;5.480;2022-07-31T10:45:50;24.60;67.00
69331;DHT22;56475;52.114;5.480;2022-07-31T10:48:51;24.40;67.40
69331;DHT22;56475;52.114;5.480;2022-07-31T10:51:50;24.10;68.40
69331;DHT22;56475;52.114;5.480;2022-07-31T10:54:42;23.80;68.80
69331;DHT22;56475;52.114;5.480;2022-07-31T10:57:33;23.50;69.80
69331;DHT22;56475;52.114;5.480;2022-07-31T11:00:26;23.20;70.70
69331;DHT22;56475;52.114;5.480;2022-07-31T11:02:56;23.10;71.50
69331;DHT22;56475;52.114;5.480;2022-07-31T11:05:28;23.00;71.70
69331;DHT22;56475;52.114;5.480;2022-07-31T11:08:09;22.90;72.30
69331;DHT22;56475;52.114;5.480;2022-07-31T11:10:55;22.80;72.70
69331;DHT22;56475;52.114;5.480;2022-07-31T11:13:50;22.80;72.90
69331;DHT22;56475;52.114;5.480;2022-07-31T11:16:35;22.70;73.20
69331;DHT22;56475;52.114;5.480;2022-07-31T11:19:14;24.40;74.20
69331;DHT22;56475;52.114;5.480;2022-07-31T11:21:42;22.80;73.30
69331;DHT22;56475;52.114;5.480;2022-07-31T11:24:19;22.70;73.30
69331;DHT22;56475;52.114;5.480;2022-07-31T11:26:54;22.70;73.60
69331;DHT22;56475;52.114;5.480;2022-07-31T11:29:34;22.70;73.60
69331;DHT22;56475;52.114;5.480;2022-07-31T11:32:22;22.70;74.20
69331;DHT22;56475;52.114;5.480;2022-07-31T11:34:55;22.70;73.40
69331;DHT22;56475;52.114;5.480;2022-07-31T11:37:25;22.70;73.60
69331;DHT22;56475;52.114;5.480;2022-07-31T11:40:12;22.80;73.60
69331;DHT22;56475;52.114;5.480;2022-07-31T11:42:43;22.80;73.70
69331;DHT22;56475;52.114;5.480;2022-07-31T11:45:16;22.90;73.70
69331;DHT22;56475;52.114;5.480;2022-07-31T11:47:45;23.00;73.30
69331;DHT22;56475;52.114;5.480;2022-07-31T11:50:42;23.00;73.00
69331;DHT22;56475;52.114;5.480;2022-07-31T11:53:11;23.20;73.10
69331;DHT22;56475;52.114;5.480;2022-07-31T11:58:16;23.00;72.90
69331;DHT22;56475;52.114;5.480;2022-07-31T12:03:27;22.90;72.70
69331;DHT22;56475;52.114;5.480;2022-07-31T12:05:55;22.90;73.00
69331;DHT22;56475;52.114;5.480;2022-07-31T12:08:24;22.80;73.10
69331;DHT22;56475;52.114;5.480;2022-07-31T12:10:52;22.90;73.10
69331;DHT22;56475;52.114;5.480;2022-07-31T12:13:21;22.90;73.10
69331;DHT22;56475;52.114;5.480;2022-07-31T12:15:57;22.90;73.20
69331;DHT22;56475;52.114;5.480;2022-07-31T12:18:26;23.00;73.30
69331;DHT22;56475;52.114;5.480;2022-07-31T12:21:00;23.10;72.80
69331;DHT22;56475;52.114;5.480;2022-07-31T12:23:45;23.10;72.70
69331;DHT22;56475;52.114;5.480;2022-07-31T12:26:28;23.30;72.60
69331;DHT22;56475;52.114;5.480;2022-07-31T12:29:00;23.30;72.40
69331;DHT22;56475;52.114;5.480;2022-07-31T12:31:29;23.40;73.40
69331;DHT22;56475;52.114;5.480;2022-07-31T12:33:57;23.40;72.10
69331;DHT22;56475;52.114;5.480;2022-07-31T12:36:24;23.50;71.70
69331;DHT22;56475;52.114;5.480;2022-07-31T12:38:58;23.50;71.60
69331;DHT22;56475;52.114;5.480;2022-07-31T12:41:27;23.50;71.60
69331;DHT22;56475;52.114;5.480;2022-07-31T12:44:09;23.40;71.20
69331;DHT22;56475;52.114;5.480;2022-07-31T12:46:40;23.30;71.30
69331;DHT22;56475;52.114;5.480;2022-07-31T12:49:07;23.30;71.30
69331;DHT22;56475;52.114;5.480;2022-07-31T12:51:38;23.20;71.40
69331;DHT22;56475;52.114;5.480;2022-07-31T12:54:15;23.20;71.40
69331;DHT22;56475;52.114;5.480;2022-07-31T12:56:43;23.20;71.70
69331;DHT22;56475;52.114;5.480;2022-07-31T12:59:12;23.40;71.50
69331;DHT22;56475;52.114;5.480;2022-07-31T13:01:40;23.60;71.20
69331;DHT22;56475;52.114;5.480;2022-07-31T13:04:07;23.80;70.30
69331;DHT22;56475;52.114;5.480;2022-07-31T13:06:45;24.00;69.70
69331;DHT22;56475;52.114;5.480;2022-07-31T13:09:14;24.00;69.30
69331;DHT22;56475;52.114;5.480;2022-07-31T13:11:42;24.10;68.90
69331;DHT22;56475;52.114;5.480;2022-07-31T13:14:18;24.10;68.60
69331;DHT22;56475;52.114;5.480;2022-07-31T13:16:46;24.10;68.60
69331;DHT22;56475;52.114;5.480;2022-07-31T13:19:14;24.00;68.00
69331;DHT22;56475;52.114;5.480;2022-07-31T13:21:41;23.80;68.20
69331;DHT22;56475;52.114;5.480;2022-07-31T13:24:17;23.70;68.60
69331;DHT22;56475;52.114;5.480;2022-07-31T13:26:45;23.70;69.00
69331;DHT22;56475;52.114;5.480;2022-07-31T13:29:13;23.60;68.90
69331;DHT22;56475;52.114;5.480;2022-07-31T13:31:40;23.70;69.20
69331;DHT22;56475;52.114;5.480;2022-07-31T13:34:07;23.70;69.20
69331;DHT22;56475;52.114;5.480;2022-07-31T13:36:34;23.70;69.00
69331;DHT22;56475;52.114;5.480;2022-07-31T13:39:08;23.70;68.80
69331;DHT22;56475;52.114;5.480;2022-07-31T13:41:36;23.70;69.00
69331;DHT22;56475;52.114;5.480;2022-07-31T13:44:05;23.50;69.10
69331;DHT22;56475;52.114;5.480;2022-07-31T13:46:33;23.60;69.20
69331;DHT22;56475;52.114;5.480;2022-07-31T13:49:00;23.50;69.30
69331;DHT22;56475;52.114;5.480;2022-07-31T13:51:28;23.50;69.50
69331;DHT22;56475;52.114;5.480;2022-07-31T13:53:56;23.40;69.50
69331;DHT22;56475;52.114;5.480;2022-07-31T13:56:23;23.50;69.80
69331;DHT22;56475;52.114;5.480;2022-07-31T13:59:11;23.50;69.50
69331;DHT22;56475;52.114;5.480;2022-07-31T14:01:40;23.50;69.20
69331;DHT22;56475;52.114;5.480;2022-07-31T14:04:28;23.50;69.10
69331;DHT22;56475;52.114;5.480;2022-07-31T14:06:59;23.50;68.80
69331;DHT22;56475;52.114;5.480;2022-07-31T14:09:26;23.50;69.10
69331;DHT22;56475;52.114;5.480;2022-07-31T14:11:55;23.40;69.20
69331;DHT22;56475;52.114;5.480;2022-07-31T14:14:22;23.30;69.40
69331;DHT22;56475;52.114;5.480;2022-07-31T14:16:49;23.20;69.90
69331;DHT22;56475;52.114;5.480;2022-07-31T14:19:16;23.20;70.40
69331;DHT22;56475;52.114;5.480;2022-07-31T14:21:46;23.00;70.70
69331;DHT22;56475;52.114;5.480;2022-07-31T14:24:22;23.00;71.20
69331;DHT22;56475;52.114;5.480;2022-07-31T14:26:49;22.80;71.50
69331;DHT22;56475;52.114;5.480;2022-07-31T14:29:17;22.80;71.30
69331;DHT22;56475;52.114;5.480;2022-07-31T14:31:45;22.70;71.70
69331;DHT22;56475;52.114;5.480;2022-07-31T14:34:12;22.60;72.00
69331;DHT22;56475;52.114;5.480;2022-07-31T14:36:41;22.60;72.40
69331;DHT22;56475;52.114;5.480;2022-07-31T14:39:08;22.60;72.80
69331;DHT22;56475;52.114;5.480;2022-07-31T14:41:36;22.40;73.00
69331;DHT22;56475;52.114;5.480;2022-07-31T14:44:03;22.40;73.70
69331;DHT22;56475;52.114;5.480;2022-07-31T14:46:30;22.20;74.10
69331;DHT22;56475;52.114;5.480;2022-07-31T14:48:57;22.10;74.60
69331;DHT22;56475;52.114;5.480;2022-07-31T14:51:26;22.20;75.00
69331;DHT22;56475;52.114;5.480;2022-07-31T14:53:53;22.10;75.30
69331;DHT22;56475;52.114;5.480;2022-07-31T14:56:20;22.10;75.90
69331;DHT22;56475;52.114;5.480;2022-07-31T14:59:10;22.20;76.60
69331;DHT22;56475;52.114;5.480;2022-07-31T15:01:37;22.40;76.70
69331;DHT22;56475;52.114;5.480;2022-07-31T15:04:04;22.50;76.00
69331;DHT22;56475;52.114;5.480;2022-07-31T15:06:32;22.70;75.40
69331;DHT22;56475;52.114;5.480;2022-07-31T15:09:19;22.60;75.20
69331;DHT22;56475;52.114;5.480;2022-07-31T15:11:46;22.70;74.90
69331;DHT22;56475;52.114;5.480;2022-07-31T15:14:30;22.90;74.70
69331;DHT22;56475;52.114;5.480;2022-07-31T15:16:57;23.00;74.30
69331;DHT22;56475;52.114;5.480;2022-07-31T15:19:25;23.30;73.80
69331;DHT22;56475;52.114;5.480;2022-07-31T15:21:52;23.50;73.00
69331;DHT22;56475;52.114;5.480;2022-07-31T15:24:39;23.60;72.40
69331;DHT22;56475;52.114;5.480;2022-07-31T15:27:15;23.60;72.10
69331;DHT22;56475;52.114;5.480;2022-07-31T15:29:43;23.40;71.80
69331;DHT22;56475;52.114;5.480;2022-07-31T15:32:31;23.30;72.30
69331;DHT22;56475;52.114;5.480;2022-07-31T15:35:00;23.20;72.80
69331;DHT22;56475;52.114;5.480;2022-07-31T15:37:28;22.90;73.30
69331;DHT22;56475;52.114;5.480;2022-07-31T15:39:56;22.90;73.90
69331;DHT22;56475;52.114;5.480;2022-07-31T15:42:33;22.80;74.30
69331;DHT22;56475;52.114;5.480;2022-07-31T15:45:00;22.70;74.60
69331;DHT22;56475;52.114;5.480;2022-07-31T15:47:27;22.60;74.50
69331;DHT22;56475;52.114;5.480;2022-07-31T15:49:54;22.50;74.60
69331;DHT22;56475;52.114;5.480;2022-07-31T15:52:22;22.50;74.90
69331;DHT22;56475;52.114;5.480;2022-07-31T15:54:49;22.20;75.40
69331;DHT22;56475;52.114;5.480;2022-07-31T15:57:19;22.10;76.30
69331;DHT22;56475;52.114;5.480;2022-07-31T15:59:48;21.90;77.00
69331;DHT22;56475;52.114;5.480;2022-07-31T16:02:16;22.00;77.60
69331;DHT22;56475;52.114;5.480;2022-07-31T16:04:43;22.00;77.70
69331;DHT22;56475;52.114;5.480;2022-07-31T16:07:21;21.50;77.50
69331;DHT22;56475;52.114;5.480;2022-07-31T16:10:10;22.00;78.10
69331;DHT22;56475;52.114;5.480;2022-07-31T16:12:46;21.90;77.80
69331;DHT22;56475;52.114;5.480;2022-07-31T16:15:15;22.10;77.30
69331;DHT22;56475;52.114;5.480;2022-07-31T16:17:43;22.10;77.20
69331;DHT22;56475;52.114;5.480;2022-07-31T16:20:11;22.20;77.20
69331;DHT22;56475;52.114;5.480;2022-07-31T16:22:54;22.20;77.00